Mr. Cass — WDB5593 — position and weather

sailwx.info

Track history (hours):
 
Tides and Currents Weather Stations Pressure Air Temp Water Temp Dewpoint Dewpoint Depression Visibility Wind Speed Wind Dir Waves Ship Positions

Mr. Cass

Owner: Cass Marine Towing LLC, Marrero, LA. More information available from US FCC via Universal Licensing System and Coast Guard Vessel Documentation Center.

Last reported at 2015-Mar-06 10:34 UTC. Time now 2015-Mar-06 11:08 UTC.
Position N 29°57' W 090°03'.

Length 17 m; draft 3.5 m.

Type: Towing. MMSI: 366911310.

Date/timePositionNaut miles runAvg speedWind from/ knotsBaromVisibWave heightAir tempDewpointWater temp
2015-Mar-06 10:34N 29°57' W 090°03'5 5.3
2015-Mar-06 09:32N 29°55' W 089°58'8 0.3
2015-Mar-05 03:23N 29°54' W 090°07'0 0.1
2015-Mar-05 01:12N 29°54' W 090°07'0 0.0
2015-Mar-05 00:28N 29°54' W 090°07'0 0.0
2015-Mar-04 23:27N 29°54' W 090°07'0 0.0
2015-Mar-04 22:31N 29°54' W 090°07'0 0.0
2015-Mar-04 21:23N 29°54' W 090°07'0 0.0
2015-Mar-04 20:31N 29°54' W 090°07'0 0.0
2015-Mar-04 19:27N 29°54' W 090°07'0 0.0
2015-Mar-04 18:33N 29°54' W 090°07'0 0.0
2015-Mar-04 17:32N 29°54' W 090°07'0 0.0
2015-Mar-04 16:33N 29°54' W 090°07'0 0.1
2015-Mar-04 15:33N 29°54' W 090°07'0 0.0
2015-Mar-04 14:33N 29°54' W 090°07'0 0.0
2015-Mar-04 13:33N 29°54' W 090°07'0 0.0
2015-Mar-04 12:32N 29°54' W 090°07'0 0.0
2015-Mar-04 11:32N 29°54' W 090°07'0 0.0
2015-Mar-04 10:33N 29°54' W 090°07'0 0.0
2015-Mar-04 09:14N 29°54' W 090°07'4 0.3
2015-Mar-03 20:16N 29°52' W 090°04'3 3.7
2015-Mar-03 19:25N 29°55' W 090°05'2 0.4
2015-Mar-03 14:15N 29°54' W 090°07'0 0.0
2015-Mar-03 12:21N 29°54' W 090°07'0 0.0
2015-Mar-03 10:27N 29°54' W 090°07'0 0.0
2015-Mar-02 17:24N 29°54' W 090°07'  
2015-Feb-28 08:24N 29°54' W 090°07'4 2.2
2015-Feb-28 06:30N 29°57' W 090°03'4 1.8
2015-Feb-28 04:29N 29°60' W 090°01'0 0.4
2015-Feb-28 03:27N 29°60' W 090°00'8 1.7
2015-Feb-27 22:32N 29°54' W 090°07'0 0.0
2015-Feb-27 21:23N 29°54' W 090°07'0 0.0
2015-Feb-27 20:14N 29°54' W 090°07'0 0.0
2015-Feb-27 19:29N 29°54' W 090°07'0 0.0
2015-Feb-27 17:05N 29°54' W 090°07'0 0.0
2015-Feb-27 16:23N 29°54' W 090°07'0 0.0
2015-Feb-27 14:20N 29°54' W 090°07'0 0.0
2015-Feb-27 11:26N 29°54' W 090°07'0 0.0
2015-Feb-27 10:32N 29°54' W 090°07'0 0.0
2015-Feb-27 09:08N 29°54' W 090°07'0 0.0
2015-Feb-27 08:32N 29°54' W 090°07'6 0.2
2015-Feb-26 09:11N 29°57' W 090°02'1 0.8
2015-Feb-26 07:26N 29°59' W 090°01'1 0.6
2015-Feb-26 06:31N 29°58' W 090°02'6 2.6
2015-Feb-26 04:08N 29°54' W 090°07'0 0.0
2015-Feb-26 03:23N 29°54' W 090°07'0 0.0
2015-Feb-26 00:17N 29°54' W 090°07'0 0.0
2015-Feb-25 23:14N 29°54' W 090°07'0 0.0
2015-Feb-25 15:33N 29°54' W 090°07'2 0.3
2015-Feb-25 08:05N 29°57' W 090°08'3 4.7
2015-Feb-25 07:33N 29°55' W 090°07'5 4.6
2015-Feb-25 06:28N 29°57' W 090°02'6 5.2
2015-Feb-25 05:21N 29°55' W 089°55'  
Track history (hours):
 
Tides and Currents Weather Stations Pressure Air Temp Water Temp Dewpoint Dewpoint Depression Visibility Wind Speed Wind Dir Waves Ship Positions

Mr. Cass

Owner: Cass Marine Towing LLC, Marrero, LA. More information available from US FCC via Universal Licensing System and Coast Guard Vessel Documentation Center.

Last reported at 2015-Mar-06 10:34 UTC. Time now 2015-Mar-06 11:08 UTC.
Position N 29°57' W 090°03'.

Length 17 m; draft 3.5 m.

Type: Towing. MMSI: 366911310.

Date/timePositionNaut miles runAvg speedWind from/ knotsBaromVisibWave heightAir tempDewpointWater temp
2015-Mar-06 10:34N 29°57' W 090°03'5 5.3
2015-Mar-06 09:32N 29°55' W 089°58'8 0.3
2015-Mar-05 03:23N 29°54' W 090°07'0 0.1
2015-Mar-05 01:12N 29°54' W 090°07'0 0.0
2015-Mar-05 00:28N 29°54' W 090°07'0 0.0
2015-Mar-04 23:27N 29°54' W 090°07'0 0.0
2015-Mar-04 22:31N 29°54' W 090°07'0 0.0
2015-Mar-04 21:23N 29°54' W 090°07'0 0.0
2015-Mar-04 20:31N 29°54' W 090°07'0 0.0
2015-Mar-04 19:27N 29°54' W 090°07'0 0.0
2015-Mar-04 18:33N 29°54' W 090°07'0 0.0
2015-Mar-04 17:32N 29°54' W 090°07'0 0.0
2015-Mar-04 16:33N 29°54' W 090°07'0 0.1
2015-Mar-04 15:33N 29°54' W 090°07'0 0.0
2015-Mar-04 14:33N 29°54' W 090°07'0 0.0
2015-Mar-04 13:33N 29°54' W 090°07'0 0.0
2015-Mar-04 12:32N 29°54' W 090°07'0 0.0
2015-Mar-04 11:32N 29°54' W 090°07'0 0.0
2015-Mar-04 10:33N 29°54' W 090°07'0 0.0
2015-Mar-04 09:14N 29°54' W 090°07'4 0.3
2015-Mar-03 20:16N 29°52' W 090°04'3 3.7
2015-Mar-03 19:25N 29°55' W 090°05'2 0.4
2015-Mar-03 14:15N 29°54' W 090°07'0 0.0
2015-Mar-03 12:21N 29°54' W 090°07'0 0.0
2015-Mar-03 10:27N 29°54' W 090°07'0 0.0
2015-Mar-02 17:24N 29°54' W 090°07'  
2015-Feb-28 08:24N 29°54' W 090°07'4 2.2
2015-Feb-28 06:30N 29°57' W 090°03'4 1.8
2015-Feb-28 04:29N 29°60' W 090°01'0 0.4
2015-Feb-28 03:27N 29°60' W 090°00'8 1.7
2015-Feb-27 22:32N 29°54' W 090°07'0 0.0
2015-Feb-27 21:23N 29°54' W 090°07'0 0.0
2015-Feb-27 20:14N 29°54' W 090°07'0 0.0
2015-Feb-27 19:29N 29°54' W 090°07'0 0.0
2015-Feb-27 17:05N 29°54' W 090°07'0 0.0
2015-Feb-27 16:23N 29°54' W 090°07'0 0.0
2015-Feb-27 14:20N 29°54' W 090°07'0 0.0
2015-Feb-27 11:26N 29°54' W 090°07'0 0.0
2015-Feb-27 10:32N 29°54' W 090°07'0 0.0
2015-Feb-27 09:08N 29°54' W 090°07'0 0.0
2015-Feb-27 08:32N 29°54' W 090°07'6 0.2
2015-Feb-26 09:11N 29°57' W 090°02'1 0.8
2015-Feb-26 07:26N 29°59' W 090°01'1 0.6
2015-Feb-26 06:31N 29°58' W 090°02'6 2.6
2015-Feb-26 04:08N 29°54' W 090°07'0 0.0
2015-Feb-26 03:23N 29°54' W 090°07'0 0.0
2015-Feb-26 00:17N 29°54' W 090°07'0 0.0
2015-Feb-25 23:14N 29°54' W 090°07'0 0.0
2015-Feb-25 15:33N 29°54' W 090°07'2 0.3
2015-Feb-25 08:05N 29°57' W 090°08'3 4.7
2015-Feb-25 07:33N 29°55' W 090°07'5 4.6
2015-Feb-25 06:28N 29°57' W 090°02'6 5.2
2015-Feb-25 05:21N 29°55' W 089°55'  

Dump ship's entire track history